Time;durP1;ratioP1;P1;durP2;ratioP2;P2;SDS_P1;SDS_P2;PMS_P1;PMS_P2;Temp;Humidity;BMP_temperature;BMP_pressure;BME280_temperature;BME280_humidity;BME280_pressure;Samples;Min_cycle;Max_cycle;Signal;HPM_P1;HPM_P2
2024/01/26 00:02:08;;;;;;;20.10;7.50;;;4.20;78.60;;;;;;6236820;28;20234;-79
2024/01/26 00:05:11;;;;;;;18.50;7.83;;;4.20;78.70;;;;;;6236806;28;20640;-81
2024/01/26 00:08:16;;;;;;;17.07;7.43;;;4.10;78.60;;;;;;6236629;28;20281;-81
2024/01/26 00:11:20;;;;;;;21.10;8.57;;;4.10;78.60;;;;;;6236791;28;20227;-82
2024/01/26 00:14:23;;;;;;;18.83;8.53;;;4.10;78.70;;;;;;6238039;28;20848;-82
2024/01/26 00:17:27;;;;;;;18.70;8.33;;;4.10;78.60;;;;;;6211892;28;20238;-81
2024/01/26 00:20:30;;;;;;;16.37;8.50;;;4.10;78.70;;;;;;6217048;28;20309;-81
2024/01/26 00:23:35;;;;;;;19.60;7.87;;;4.10;78.80;;;;;;6214262;28;20231;-82
2024/01/26 00:26:38;;;;;;;22.67;8.50;;;4.10;78.70;;;;;;6216171;28;20235;-79
2024/01/26 00:29:41;;;;;;;27.83;8.73;;;4.10;78.70;;;;;;6216826;28;20231;-82
2024/01/26 00:32:44;;;;;;;15.37;7.47;;;4.00;78.50;;;;;;6211608;28;20238;-81
2024/01/26 00:35:47;;;;;;;13.23;6.93;;;3.90;78.60;;;;;;6215644;28;20235;-81
2024/01/26 00:38:52;;;;;;;14.93;8.80;;;3.90;78.70;;;;;;6216697;28;20243;-80
2024/01/26 00:41:55;;;;;;;21.30;8.33;;;3.80;79.00;;;;;;6210243;28;20238;-81
2024/01/26 00:44:58;;;;;;;19.50;7.47;;;3.80;79.10;;;;;;6191303;28;20345;-80
2024/01/26 00:48:01;;;;;;;26.50;8.10;;;3.70;79.20;;;;;;6216643;28;20255;-82
2024/01/26 00:51:06;;;;;;;15.40;7.67;;;3.70;79.30;;;;;;6232177;28;20245;-82
2024/01/26 00:54:11;;;;;;;18.17;8.07;;;3.60;79.40;;;;;;6216313;28;20236;-81
2024/01/26 00:57:15;;;;;;;18.60;7.67;;;3.50;79.50;;;;;;6212231;28;20263;-81
2024/01/26 01:00:18;;;;;;;22.30;8.77;;;3.50;80.10;;;;;;6216321;28;20302;-81
2024/01/26 01:03:21;;;;;;;26.90;9.33;;;3.50;80.00;;;;;;6215855;28;20603;-80
2024/01/26 01:06:25;;;;;;;19.50;8.73;;;3.50;79.90;;;;;;6213863;28;20238;-80
2024/01/26 01:09:29;;;;;;;23.77;9.23;;;3.50;79.70;;;;;;6216764;28;20235;-80
2024/01/26 01:12:33;;;;;;;17.33;7.60;;;3.50;80.10;;;;;;6215781;28;20691;-81
2024/01/26 01:15:37;;;;;;;19.60;7.97;;;3.30;80.10;;;;;;6216060;28;20326;-81
2024/01/26 01:18:41;;;;;;;24.97;8.53;;;3.30;80.20;;;;;;6209682;28;20231;-81
2024/01/26 01:21:46;;;;;;;22.10;9.27;;;3.30;80.50;;;;;;6214641;28;20682;-80
2024/01/26 01:24:50;;;;;;;19.83;8.93;;;3.40;80.30;;;;;;6214697;28;20231;-82
2024/01/26 01:27:53;;;;;;;18.37;8.93;;;3.30;80.10;;;;;;6206840;28;20257;-80
2024/01/26 01:30:57;;;;;;;22.73;9.73;;;3.30;80.20;;;;;;6215841;28;20612;-80
2024/01/26 01:34:00;;;;;;;15.90;8.87;;;3.20;80.30;;;;;;6211014;28;20239;-81
2024/01/26 01:37:05;;;;;;;28.93;10.57;;;3.10;80.40;;;;;;6211625;28;20281;-82
2024/01/26 01:40:11;;;;;;;15.00;9.13;;;3.10;80.70;;;;;;6205408;28;20781;-82
2024/01/26 01:43:17;;;;;;;14.73;8.73;;;3.00;80.80;;;;;;6215604;28;20751;-79
2024/01/26 01:46:20;;;;;;;10.93;9.00;;;3.00;80.70;;;;;;6213201;28;20243;-80
2024/01/26 01:49:24;;;;;;;20.93;9.87;;;2.90;80.70;;;;;;6215442;28;20604;-82
2024/01/26 01:52:28;;;;;;;19.73;10.00;;;2.90;80.80;;;;;;6215747;28;20243;-80
2024/01/26 01:55:34;;;;;;;14.70;9.33;;;3.00;80.70;;;;;;6214441;28;20235;-81
2024/01/26 01:58:39;;;;;;;29.27;10.07;;;2.90;80.50;;;;;;6207012;28;20238;-81
2024/01/26 02:01:42;;;;;;;14.03;8.23;;;2.90;80.50;;;;;;6212870;28;20239;-80
2024/01/26 02:04:45;;;;;;;22.93;8.73;;;2.90;80.70;;;;;;6214337;28;20232;-81
2024/01/26 02:07:49;;;;;;;13.20;8.10;;;2.90;80.50;;;;;;6206277;28;20239;-80
2024/01/26 02:10:55;;;;;;;21.57;8.57;;;2.80;80.50;;;;;;6215521;28;20236;-82
2024/01/26 02:13:59;;;;;;;14.67;7.53;;;2.70;80.50;;;;;;6210601;28;20341;-83
2024/01/26 02:17:03;;;;;;;14.60;8.27;;;2.70;80.70;;;;;;6215349;28;20431;-81
2024/01/26 02:20:08;;;;;;;17.03;9.23;;;2.50;80.80;;;;;;6214460;28;20247;-81
2024/01/26 02:23:16;;;;;;;24.97;9.83;;;2.50;81.00;;;;;;6207567;28;20234;-81
2024/01/26 02:26:19;;;;;;;29.00;9.60;;;2.50;81.10;;;;;;6209844;28;20354;-79
2024/01/26 02:29:22;;;;;;;20.50;10.37;;;2.50;81.20;;;;;;6215363;28;20289;-81
2024/01/26 02:32:26;;;;;;;23.60;9.60;;;2.50;81.30;;;;;;6215118;28;20251;-82
2024/01/26 02:35:29;;;;;;;27.83;9.43;;;2.40;81.30;;;;;;6212760;28;20378;-81
2024/01/26 02:38:33;;;;;;;21.90;9.70;;;2.40;81.30;;;;;;6214300;28;20305;-81
2024/01/26 02:41:37;;;;;;;24.13;9.60;;;2.40;81.60;;;;;;6213431;28;20231;-79
2024/01/26 02:44:40;;;;;;;22.50;10.53;;;2.30;81.80;;;;;;6213815;28;20645;-81
2024/01/26 02:47:43;;;;;;;26.50;9.73;;;2.30;81.80;;;;;;6203208;28;20321;-81
2024/01/26 02:50:47;;;;;;;24.80;10.43;;;2.40;81.70;;;;;;6218097;28;20302;-83
2024/01/26 02:53:51;;;;;;;23.33;9.30;;;2.50;81.40;;;;;;6218570;28;20320;-83
2024/01/26 02:56:56;;;;;;;17.30;9.53;;;2.50;81.10;;;;;;6217573;28;20239;-81
2024/01/26 03:00:00;;;;;;;25.13;9.80;;;2.40;81.40;;;;;;6214450;28;20235;-81
2024/01/26 03:03:03;;;;;;;27.17;10.13;;;2.30;81.50;;;;;;6215205;28;20242;-82
2024/01/26 03:06:11;;;;;;;18.70;9.10;;;2.40;81.50;;;;;;6215318;28;20318;-81
2024/01/26 03:09:16;;;;;;;27.00;10.10;;;2.40;81.40;;;;;;6230158;28;20242;-81
2024/01/26 03:12:20;;;;;;;14.63;9.60;;;2.30;81.30;;;;;;6216991;28;20239;-81
2024/01/26 03:15:23;;;;;;;17.83;8.80;;;2.30;81.30;;;;;;6230131;28;20749;-81
2024/01/26 03:18:27;;;;;;;13.93;8.50;;;2.20;81.50;;;;;;6237071;28;20838;-81
2024/01/26 03:21:30;;;;;;;20.57;9.43;;;2.20;81.50;;;;;;6228841;28;20235;-80
2024/01/26 03:24:35;;;;;;;18.10;9.17;;;2.20;81.70;;;;;;6228559;28;20242;-79
2024/01/26 03:27:38;;;;;;;24.13;10.17;;;2.20;81.70;;;;;;6238575;28;20229;-81
2024/01/26 03:30:43;;;;;;;19.30;10.03;;;2.30;81.60;;;;;;6229840;28;20256;-81
2024/01/26 03:33:51;;;;;;;14.10;9.50;;;2.30;81.50;;;;;;6235619;28;20298;-81
2024/01/26 03:36:55;;;;;;;21.30;10.07;;;2.30;81.50;;;;;;6237280;28;20235;-82
2024/01/26 03:39:59;;;;;;;22.07;10.73;;;2.30;81.50;;;;;;6231289;28;20425;-80
2024/01/26 03:43:04;;;;;;;20.13;10.13;;;2.30;81.50;;;;;;6236137;28;20722;-80
2024/01/26 03:46:08;;;;;;;25.23;10.67;;;2.30;81.60;;;;;;6236483;28;20405;-80
2024/01/26 03:49:11;;;;;;;23.40;10.23;;;2.30;81.80;;;;;;6232701;28;20641;-81
2024/01/26 03:52:15;;;;;;;21.90;10.07;;;2.30;82.00;;;;;;6236038;28;20258;-81
2024/01/26 03:55:22;;;;;;;31.87;11.97;;;2.40;81.80;;;;;;6236208;28;20243;-82
2024/01/26 03:58:25;;;;;;;21.90;11.40;;;2.40;81.80;;;;;;6228537;28;20321;-82
2024/01/26 04:01:28;;;;;;;24.90;11.47;;;2.30;81.90;;;;;;6192422;28;20707;-79
2024/01/26 04:04:32;;;;;;;26.87;11.60;;;2.40;82.00;;;;;;6215788;28;20331;-78
2024/01/26 04:07:36;;;;;;;21.40;11.47;;;2.40;81.70;;;;;;6201130;28;20723;-80
2024/01/26 04:10:40;;;;;;;31.07;11.70;;;2.30;81.90;;;;;;6205744;28;20682;-82
2024/01/26 04:13:43;;;;;;;19.97;11.30;;;2.30;82.00;;;;;;6208196;28;21617;-81
2024/01/26 04:16:46;;;;;;;22.83;11.73;;;2.30;81.90;;;;;;6229086;28;20246;-82
2024/01/26 04:19:50;;;;;;;30.40;12.27;;;2.30;81.90;;;;;;6208897;28;20231;-82
2024/01/26 04:22:53;;;;;;;22.73;11.70;;;2.30;81.90;;;;;;6209390;28;20736;-80
2024/01/26 04:25:57;;;;;;;25.50;11.33;;;2.30;81.80;;;;;;6211100;28;20246;-82
2024/01/26 04:29:01;;;;;;;26.57;12.23;;;2.30;81.80;;;;;;6211889;28;20790;-82
2024/01/26 04:32:05;;;;;;;27.57;11.80;;;2.30;81.40;;;;;;6224738;28;20872;-79
2024/01/26 04:35:11;;;;;;;22.33;10.93;;;2.40;81.20;;;;;;6233166;28;20235;-80
2024/01/26 04:38:14;;;;;;;22.27;10.33;;;2.40;81.40;;;;;;6238157;28;20723;-80
2024/01/26 04:41:18;;;;;;;23.43;10.83;;;2.30;81.50;;;;;;6241773;28;20237;-81
2024/01/26 04:44:22;;;;;;;23.37;11.80;;;2.30;81.40;;;;;;6238766;28;20252;-81
2024/01/26 04:47:25;;;;;;;25.57;11.20;;;2.30;81.50;;;;;;6236849;28;20246;-82
2024/01/26 04:50:28;;;;;;;24.17;11.47;;;2.40;81.40;;;;;;6228906;28;20235;-80
2024/01/26 04:53:32;;;;;;;26.90;11.73;;;2.40;81.40;;;;;;6234511;28;20238;-82
2024/01/26 04:56:37;;;;;;;25.23;12.50;;;2.40;81.00;;;;;;6238214;28;20231;-80
2024/01/26 04:59:40;;;;;;;31.77;12.30;;;2.40;80.70;;;;;;6237246;28;20234;-82
2024/01/26 05:02:43;;;;;;;27.83;12.37;;;2.30;81.10;;;;;;6238884;28;20300;-81
2024/01/26 05:05:46;;;;;;;28.27;12.80;;;2.30;81.10;;;;;;6234747;28;20257;-82
2024/01/26 05:08:49;;;;;;;23.77;11.93;;;2.20;81.20;;;;;;6238263;28;20237;-80
2024/01/26 05:11:54;;;;;;;25.20;11.70;;;2.30;81.30;;;;;;6239502;28;20245;-81
2024/01/26 05:14:58;;;;;;;29.10;11.53;;;2.30;81.10;;;;;;6235092;28;20262;-80
2024/01/26 05:18:03;;;;;;;28.13;12.20;;;2.30;80.90;;;;;;6239207;28;20234;-79
2024/01/26 05:21:07;;;;;;;25.67;11.27;;;2.30;80.80;;;;;;6241321;28;20721;-81
2024/01/26 05:24:11;;;;;;;21.33;11.90;;;2.40;80.70;;;;;;6240359;28;20235;-80
2024/01/26 05:27:16;;;;;;;21.40;11.03;;;2.50;80.30;;;;;;6242193;28;20610;-81
2024/01/26 05:30:19;;;;;;;19.03;9.90;;;2.50;80.40;;;;;;6242455;28;20242;-81
2024/01/26 05:33:22;;;;;;;24.60;12.50;;;2.40;80.40;;;;;;6233746;28;20245;-80
2024/01/26 05:36:26;;;;;;;24.03;11.07;;;2.40;80.30;;;;;;6237333;28;20714;-81
2024/01/26 05:39:32;;;;;;;17.53;10.23;;;2.40;80.30;;;;;;6230258;28;20823;-80
2024/01/26 05:42:37;;;;;;;23.17;10.30;;;2.50;80.10;;;;;;6239608;28;20238;-81
2024/01/26 05:45:40;;;;;;;19.07;11.03;;;2.50;79.90;;;;;;6240470;28;20289;-81
2024/01/26 05:48:45;;;;;;;14.17;10.23;;;2.50;79.60;;;;;;6232872;28;20764;-81
2024/01/26 05:51:48;;;;;;;31.00;11.73;;;2.50;79.60;;;;;;6233427;28;20721;-79
2024/01/26 05:54:52;;;;;;;19.30;10.27;;;2.50;79.70;;;;;;6240131;28;20292;-80
2024/01/26 05:57:57;;;;;;;21.37;11.07;;;2.50;79.70;;;;;;6232011;28;20376;-81
2024/01/26 06:01:00;;;;;;;18.83;10.60;;;2.70;79.10;;;;;;6239825;28;20231;-79
2024/01/26 06:04:05;;;;;;;21.23;9.70;;;2.90;78.50;;;;;;6230372;28;20263;-80
2024/01/26 06:07:08;;;;;;;14.67;10.17;;;3.00;78.20;;;;;;6241186;28;20346;-80
2024/01/26 06:10:11;;;;;;;29.03;11.57;;;3.00;78.20;;;;;;6248539;28;20238;-81
2024/01/26 06:13:16;;;;;;;24.57;11.50;;;3.10;78.10;;;;;;6231417;28;20734;-80
2024/01/26 06:16:19;;;;;;;21.33;12.00;;;3.00;78.30;;;;;;6236514;28;20624;-81
2024/01/26 06:19:22;;;;;;;29.40;12.10;;;3.00;78.10;;;;;;6231610;28;20231;-80
2024/01/26 06:22:26;;;;;;;20.43;11.67;;;3.00;78.00;;;;;;6211374;28;20363;-78
2024/01/26 06:25:29;;;;;;;34.33;13.33;;;3.00;78.20;;;;;;6211441;28;20556;-78
2024/01/26 06:28:33;;;;;;;22.50;11.63;;;3.00;78.10;;;;;;6215337;28;20858;-77
2024/01/26 06:31:36;;;;;;;23.40;12.57;;;3.00;78.20;;;;;;6210485;28;20306;-79
2024/01/26 06:34:40;;;;;;;20.70;11.37;;;3.00;78.00;;;;;;6213368;28;20715;-77
2024/01/26 06:37:44;;;;;;;22.67;11.03;;;3.10;77.80;;;;;;6212711;28;20320;-78
2024/01/26 06:40:47;;;;;;;19.13;11.07;;;3.10;77.70;;;;;;6207953;28;20825;-79
2024/01/26 06:43:52;;;;;;;21.77;11.40;;;3.10;77.50;;;;;;6219986;28;20250;-79
2024/01/26 06:46:55;;;;;;;26.10;10.67;;;3.00;77.50;;;;;;6205842;28;20309;-77
2024/01/26 06:49:58;;;;;;;22.40;11.37;;;3.10;77.20;;;;;;6189176;28;20387;-80
2024/01/26 06:53:01;;;;;;;22.60;11.13;;;3.10;77.20;;;;;;6215723;28;20290;-76
2024/01/26 06:56:05;;;;;;;20.37;10.87;;;3.00;77.30;;;;;;6216578;28;20787;-78
2024/01/26 06:59:09;;;;;;;22.80;11.60;;;2.90;77.40;;;;;;6207927;28;20273;-78
2024/01/26 07:02:13;;;;;;;27.50;11.40;;;2.90;77.50;;;;;;6217621;28;20322;-80
2024/01/26 07:05:16;;;;;;;23.43;11.07;;;2.80;77.70;;;;;;6214603;28;20748;-80
2024/01/26 07:08:19;;;;;;;25.03;11.07;;;2.70;78.10;;;;;;6204762;28;20866;-78
2024/01/26 07:11:24;;;;;;;27.67;11.37;;;2.80;78.10;;;;;;6205472;28;20246;-79
2024/01/26 07:14:29;;;;;;;25.87;11.43;;;2.70;78.20;;;;;;6204763;28;20740;-78
2024/01/26 07:17:32;;;;;;;22.30;11.40;;;2.60;78.30;;;;;;6207318;28;20262;-78
2024/01/26 07:20:35;;;;;;;23.10;11.33;;;2.60;78.30;;;;;;6202671;28;20243;-81
2024/01/26 07:23:41;;;;;;;23.40;11.47;;;2.60;78.40;;;;;;6205234;28;20251;-79
2024/01/26 07:26:47;;;;;;;21.53;11.33;;;2.60;78.40;;;;;;6198853;28;20239;-79
2024/01/26 07:29:52;;;;;;;21.77;11.50;;;2.70;78.10;;;;;;6205665;28;20296;-79
2024/01/26 07:32:55;;;;;;;20.17;12.17;;;2.70;78.30;;;;;;6214005;28;20820;-80
2024/01/26 07:35:58;;;;;;;26.10;11.87;;;2.80;78.00;;;;;;6239941;28;20243;-79
2024/01/26 07:39:02;;;;;;;25.30;12.37;;;2.70;78.30;;;;;;6240939;28;20241;-79
2024/01/26 07:42:05;;;;;;;24.10;11.73;;;2.70;78.40;;;;;;6236175;28;20313;-81
2024/01/26 07:45:12;;;;;;;27.17;12.07;;;2.60;78.40;;;;;;6230216;28;20265;-78
2024/01/26 07:48:15;;;;;;;27.53;11.97;;;2.60;78.70;;;;;;6242662;28;20242;-80
2024/01/26 07:51:19;;;;;;;27.00;12.67;;;2.70;78.70;;;;;;6242155;28;20320;-79
2024/01/26 07:54:22;;;;;;;22.70;12.00;;;2.80;78.40;;;;;;6238145;28;20237;-79
2024/01/26 07:57:26;;;;;;;24.60;12.67;;;2.90;78.10;;;;;;6227533;28;20237;-78
2024/01/26 08:00:31;;;;;;;25.80;11.43;;;2.90;78.00;;;;;;6240742;28;20246;-80
2024/01/26 08:03:34;;;;;;;21.13;11.20;;;2.90;78.10;;;;;;6241894;28;20365;-79
2024/01/26 08:06:38;;;;;;;19.10;11.10;;;3.00;78.00;;;;;;6244553;28;20320;-80
2024/01/26 08:09:42;;;;;;;25.93;11.47;;;3.10;77.60;;;;;;6240692;28;20241;-78
2024/01/26 08:12:45;;;;;;;21.00;10.97;;;3.20;77.40;;;;;;6239517;28;20234;-78
2024/01/26 08:15:51;;;;;;;19.77;10.97;;;3.30;77.20;;;;;;6241902;28;20274;-82
2024/01/26 08:18:54;;;;;;;20.27;10.90;;;3.50;76.90;;;;;;6236496;28;20377;-81
2024/01/26 08:21:58;;;;;;;24.57;11.43;;;3.50;76.70;;;;;;6240053;28;20272;-81
2024/01/26 08:25:01;;;;;;;24.03;11.50;;;3.50;76.90;;;;;;6241425;28;20242;-79
2024/01/26 08:28:06;;;;;;;17.93;11.23;;;3.50;76.90;;;;;;6241327;28;20234;-79
2024/01/26 08:31:11;;;;;;;24.70;11.97;;;3.50;77.20;;;;;;6240612;28;20237;-79
2024/01/26 08:34:14;;;;;;;23.23;11.17;;;3.50;77.50;;;;;;6229520;28;20325;-81
2024/01/26 08:37:17;;;;;;;25.63;11.87;;;3.60;77.30;;;;;;6232667;28;20239;-79
2024/01/26 08:40:20;;;;;;;26.37;12.87;;;3.60;77.20;;;;;;6233786;28;20288;-79
2024/01/26 08:43:24;;;;;;;28.77;11.00;;;3.80;77.20;;;;;;6234659;28;20245;-76
2024/01/26 08:46:29;;;;;;;18.73;10.80;;;4.00;76.80;;;;;;6233182;28;20234;-77
2024/01/26 08:49:32;;;;;;;22.47;12.07;;;4.00;76.90;;;;;;6230989;28;20325;-76
2024/01/26 08:52:35;;;;;;;21.90;11.03;;;4.00;76.80;;;;;;6232305;28;20900;-77
2024/01/26 08:55:39;;;;;;;21.43;11.30;;;3.90;77.50;;;;;;6233110;28;20239;-77
2024/01/26 08:58:42;;;;;;;25.67;11.40;;;4.00;77.10;;;;;;6235703;28;20385;-76
2024/01/26 09:01:47;;;;;;;21.07;11.40;;;4.20;77.10;;;;;;6235417;28;20369;-76
2024/01/26 09:04:50;;;;;;;25.00;11.90;;;4.30;76.90;;;;;;6232375;28;20308;-76
2024/01/26 09:07:53;;;;;;;14.47;9.67;;;4.40;76.50;;;;;;6234713;28;20325;-78
2024/01/26 09:10:58;;;;;;;21.53;10.70;;;4.30;76.70;;;;;;6233087;28;20254;-76
2024/01/26 09:14:01;;;;;;;19.07;10.70;;;4.40;77.00;;;;;;6232448;28;20299;-79
2024/01/26 09:17:06;;;;;;;24.97;10.93;;;4.40;76.80;;;;;;6233227;28;20742;-77
2024/01/26 09:20:10;;;;;;;23.80;10.33;;;4.50;76.70;;;;;;6230700;28;20249;-79
2024/01/26 09:23:13;;;;;;;20.20;10.70;;;4.50;76.50;;;;;;6234663;28;20580;-80
2024/01/26 09:26:17;;;;;;;18.10;9.87;;;4.50;76.70;;;;;;6227527;28;20281;-77
2024/01/26 09:29:20;;;;;;;22.63;10.23;;;4.70;76.50;;;;;;6211746;28;20848;-78
2024/01/26 09:32:24;;;;;;;19.50;11.07;;;4.90;76.40;;;;;;6223508;28;20243;-81
2024/01/26 09:35:27;;;;;;;21.07;11.50;;;5.00;76.30;;;;;;6236800;28;20239;-79
2024/01/26 09:38:31;;;;;;;21.00;11.00;;;5.00;76.60;;;;;;6232761;28;20281;-76
2024/01/26 09:41:34;;;;;;;17.77;10.43;;;5.10;76.40;;;;;;6227715;28;20289;-80
2024/01/26 09:44:37;;;;;;;24.03;11.10;;;5.10;76.80;;;;;;6235369;28;20246;-77
2024/01/26 09:47:43;;;;;;;16.47;9.40;;;5.10;76.50;;;;;;6232306;28;20260;-79
2024/01/26 09:50:50;;;;;;;22.47;10.73;;;5.30;76.80;;;;;;6230232;28;20247;-80
2024/01/26 09:53:59;;;;;;;27.53;11.60;;;5.50;76.70;;;;;;6230866;28;20763;-78
2024/01/26 09:57:04;;;;;;;15.80;10.47;;;5.60;76.40;;;;;;6233011;28;20238;-79
2024/01/26 10:00:10;;;;;;;15.00;10.27;;;5.80;75.90;;;;;;6234146;28;20384;-77
2024/01/26 10:03:18;;;;;;;26.90;10.90;;;5.80;75.90;;;;;;6218862;28;20239;-78
2024/01/26 10:06:21;;;;;;;23.23;11.30;;;5.90;75.90;;;;;;6228206;28;20262;-79
2024/01/26 10:09:25;;;;;;;17.40;11.90;;;6.00;75.90;;;;;;6230586;28;20238;-80
2024/01/26 10:12:30;;;;;;;21.77;10.73;;;6.10;75.90;;;;;;6230980;28;20231;-79
2024/01/26 10:15:34;;;;;;;19.87;11.43;;;6.20;76.00;;;;;;6232643;28;20833;-80
2024/01/26 10:18:43;;;;;;;17.93;11.30;;;6.10;76.10;;;;;;6231165;28;20231;-79
2024/01/26 10:21:48;;;;;;;20.60;11.03;;;6.00;76.80;;;;;;6229713;28;20239;-78
2024/01/26 10:24:53;;;;;;;18.40;11.60;;;6.10;77.00;;;;;;6230075;28;20259;-79
2024/01/26 10:27:57;;;;;;;20.67;10.47;;;6.10;77.20;;;;;;6230075;28;20242;-79
2024/01/26 10:31:01;;;;;;;24.80;11.60;;;6.20;77.20;;;;;;6234885;28;20257;-78
2024/01/26 10:34:07;;;;;;;17.77;10.77;;;6.30;76.80;;;;;;6232077;28;20402;-77
2024/01/26 10:37:16;;;;;;;20.30;10.13;;;6.40;76.70;;;;;;6230356;28;20231;-81
2024/01/26 10:40:20;;;;;;;21.17;10.93;;;6.50;76.70;;;;;;6230687;28;20651;-78
2024/01/26 10:43:24;;;;;;;19.13;10.63;;;6.50;77.00;;;;;;6225571;28;20246;-77
2024/01/26 10:46:27;;;;;;;16.23;10.90;;;6.50;77.50;;;;;;6225480;28;20329;-77
2024/01/26 10:49:34;;;;;;;17.73;10.93;;;6.50;77.80;;;;;;6228195;28;20234;-79
2024/01/26 10:52:38;;;;;;;14.50;9.53;;;6.70;77.70;;;;;;6224823;28;20261;-75
2024/01/26 10:55:43;;;;;;;13.53;10.27;;;6.90;77.50;;;;;;6222770;28;20841;-79
2024/01/26 10:58:46;;;;;;;14.93;10.30;;;7.00;77.30;;;;;;6228354;28;20265;-81
2024/01/26 11:01:50;;;;;;;12.90;9.50;;;7.10;77.30;;;;;;6229340;28;20246;-78
2024/01/26 11:04:55;;;;;;;14.63;10.53;;;7.20;77.30;;;;;;6226949;28;20977;-76
2024/01/26 11:08:02;;;;;;;16.27;10.23;;;7.20;77.30;;;;;;6228915;28;20292;-78
2024/01/26 11:11:06;;;;;;;17.97;10.20;;;7.50;77.10;;;;;;6228804;28;20742;-77
2024/01/26 11:14:12;;;;;;;18.17;9.30;;;7.50;76.80;;;;;;6228309;28;20792;-77
2024/01/26 11:17:19;;;;;;;14.23;10.10;;;7.50;77.30;;;;;;6229377;28;20635;-77
2024/01/26 11:20:26;;;;;;;22.70;10.10;;;7.40;77.40;;;;;;6231151;28;20241;-79
2024/01/26 11:23:38;;;;;;;12.90;9.40;;;7.30;77.80;;;;;;6230418;28;21375;-79
2024/01/26 11:26:42;;;;;;;12.97;8.53;;;7.40;77.90;;;;;;6228331;28;20239;-80
2024/01/26 11:29:46;;;;;;;13.73;9.20;;;7.40;78.00;;;;;;6244121;28;20230;-79
2024/01/26 11:32:49;;;;;;;11.73;8.90;;;7.50;77.70;;;;;;6242384;28;20245;-79
2024/01/26 11:36:05;;;;;;;15.57;9.37;;;7.60;77.50;;;;;;6239713;28;20291;-79
2024/01/26 11:39:13;;;;;;;16.93;9.87;;;7.70;77.20;;;;;;6242613;28;20294;-78
2024/01/26 11:42:17;;;;;;;15.27;9.30;;;7.70;77.20;;;;;;6241541;28;20235;-77
2024/01/26 11:45:41;;;;;;;13.17;11.00;;;7.60;77.50;;;;;;6242677;28;20614;-78
2024/01/26 11:48:44;;;;;;;14.57;9.43;;;7.70;77.60;;;;;;6231332;28;20321;-78
2024/01/26 11:51:50;;;;;;;12.67;8.70;;;7.80;77.50;;;;;;6218361;28;20319;-79
2024/01/26 11:54:53;;;;;;;10.73;9.37;;;7.80;77.50;;;;;;6217957;28;21041;-79
2024/01/26 11:57:56;;;;;;;13.13;8.57;;;7.80;77.50;;;;;;6219585;28;20821;-80
2024/01/26 12:01:01;;;;;;;10.57;8.13;;;7.80;77.50;;;;;;6217647;28;20257;-77
2024/01/26 12:04:05;;;;;;;9.00;7.90;;;8.00;77.30;;;;;;6219497;28;20239;-77
2024/01/26 12:07:10;;;;;;;12.83;8.37;;;7.80;77.90;;;;;;6215718;28;20234;-77
2024/01/26 12:10:14;;;;;;;13.00;8.30;;;7.80;78.10;;;;;;6228424;28;20241;-77
2024/01/26 12:13:19;;;;;;;10.53;8.70;;;7.90;78.20;;;;;;6234636;28;20625;-76
2024/01/26 12:16:23;;;;;;;9.13;8.17;;;7.90;78.20;;;;;;6233649;28;20238;-79
2024/01/26 12:19:27;;;;;;;10.93;8.10;;;7.90;78.30;;;;;;6235546;28;20611;-80
2024/01/26 12:22:34;;;;;;;14.53;8.93;;;7.90;78.50;;;;;;6233492;28;20246;-79
2024/01/26 12:25:37;;;;;;;10.60;8.00;;;7.90;79.50;;;;;;6233549;28;20242;-78
2024/01/26 12:28:41;;;;;;;10.93;9.13;;;7.80;80.30;;;;;;6233726;28;20234;-79
2024/01/26 12:31:44;;;;;;;13.33;9.40;;;7.80;81.20;;;;;;6233297;28;20278;-78
2024/01/26 12:34:48;;;;;;;9.60;8.43;;;7.60;81.80;;;;;;6233434;28;20239;-78
2024/01/26 12:37:52;;;;;;;14.37;10.83;;;7.60;82.40;;;;;;6234333;28;20246;-78
2024/01/26 12:40:56;;;;;;;10.20;8.23;;;7.70;82.20;;;;;;6233415;28;20262;-79
2024/01/26 12:43:59;;;;;;;13.23;9.83;;;7.80;82.00;;;;;;6232888;28;20247;-77
2024/01/26 12:47:03;;;;;;;12.87;10.33;;;7.80;82.30;;;;;;6233473;28;20246;-76
2024/01/26 12:50:08;;;;;;;12.87;10.27;;;7.80;82.50;;;;;;6233777;28;20245;-77
2024/01/26 12:53:13;;;;;;;10.43;9.27;;;7.70;82.70;;;;;;6231559;28;20239;-78
2024/01/26 12:56:16;;;;;;;10.27;8.13;;;7.70;83.20;;;;;;6243650;28;20590;-81
2024/01/26 12:59:19;;;;;;;9.30;8.50;;;7.70;83.50;;;;;;6245985;28;20242;-79
2024/01/26 13:02:22;;;;;;;10.47;8.23;;;7.80;83.70;;;;;;6242197;28;20294;-77
2024/01/26 13:05:25;;;;;;;9.63;8.83;;;7.80;83.70;;;;;;6246940;28;20327;-80
2024/01/26 13:08:29;;;;;;;11.13;8.97;;;7.80;84.30;;;;;;6243649;28;20234;-77
2024/01/26 13:11:33;;;;;;;9.20;8.37;;;7.80;84.40;;;;;;6234568;28;20294;-79
2024/01/26 13:14:36;;;;;;;9.77;8.97;;;7.90;84.10;;;;;;6228546;28;20322;-79
2024/01/26 13:17:39;;;;;;;9.37;8.50;;;8.00;84.10;;;;;;6207253;28;20243;-82
2024/01/26 13:20:43;;;;;;;9.07;8.37;;;7.90;84.30;;;;;;6209898;28;20299;-79
2024/01/26 13:23:49;;;;;;;8.70;8.00;;;7.80;84.90;;;;;;6226513;28;20242;-79
2024/01/26 13:26:52;;;;;;;8.50;7.70;;;8.00;84.80;;;;;;6230326;28;20250;-75
2024/01/26 13:29:56;;;;;;;8.73;7.93;;;8.00;84.70;;;;;;6232067;28;20230;-76
2024/01/26 13:32:59;;;;;;;7.37;6.97;;;8.00;84.80;;;;;;6233593;28;20242;-79
2024/01/26 13:36:04;;;;;;;9.00;8.20;;;8.10;84.80;;;;;;6230968;28;20242;-77
2024/01/26 13:39:10;;;;;;;7.97;7.13;;;8.20;84.50;;;;;;6231064;28;20838;-79
2024/01/26 13:42:14;;;;;;;8.33;7.67;;;8.10;85.10;;;;;;6233804;28;20329;-79
2024/01/26 13:45:17;;;;;;;8.60;7.80;;;8.20;85.00;;;;;;6237378;28;20277;-79
2024/01/26 13:48:21;;;;;;;8.83;8.10;;;8.10;85.60;;;;;;6239344;28;20243;-75
2024/01/26 13:51:24;;;;;;;8.53;7.63;;;8.20;85.50;;;;;;6235867;28;20795;-79
2024/01/26 13:54:29;;;;;;;8.47;7.77;;;8.10;85.90;;;;;;6224628;28;20325;-79
2024/01/26 13:57:33;;;;;;;8.13;7.53;;;8.20;86.10;;;;;;6237813;28;20242;-78
2024/01/26 14:00:36;;;;;;;8.17;7.37;;;8.20;86.30;;;;;;6230990;28;20243;-80
2024/01/26 14:03:41;;;;;;;8.03;6.77;;;8.20;86.30;;;;;;6233104;28;20618;-77
2024/01/26 14:06:44;;;;;;;7.30;6.80;;;8.30;86.20;;;;;;6231094;28;20238;-78
2024/01/26 14:09:49;;;;;;;7.60;6.77;;;8.40;86.20;;;;;;6225543;28;20306;-77
2024/01/26 14:12:52;;;;;;;7.23;6.73;;;8.50;85.80;;;;;;6226585;28;20239;-80
2024/01/26 14:15:57;;;;;;;7.20;6.67;;;8.60;85.30;;;;;;6230812;28;20246;-79
2024/01/26 14:19:01;;;;;;;6.73;6.23;;;8.60;85.10;;;;;;6231414;28;20249;-79
2024/01/26 14:22:05;;;;;;;7.20;6.70;;;8.60;85.30;;;;;;6231180;28;20249;-80
2024/01/26 14:25:10;;;;;;;6.83;6.33;;;8.50;85.20;;;;;;6232116;28;20246;-79
2024/01/26 14:28:14;;;;;;;6.37;5.97;;;8.50;85.60;;;;;;6230474;28;20879;-77
2024/01/26 14:31:17;;;;;;;6.63;6.23;;;8.50;85.70;;;;;;6234991;28;20239;-78
2024/01/26 14:34:25;;;;;;;6.50;6.10;;;8.60;85.80;;;;;;6230830;28;20269;-79
2024/01/26 14:37:29;;;;;;;6.10;5.80;;;8.60;85.50;;;;;;6229861;28;20235;-82
2024/01/26 14:40:37;;;;;;;6.80;6.30;;;8.60;85.20;;;;;;6230492;28;20295;-78
2024/01/26 14:43:40;;;;;;;6.47;5.93;;;8.60;85.50;;;;;;6232331;28;20234;-78
2024/01/26 14:46:44;;;;;;;6.23;5.83;;;8.60;85.60;;;;;;6232778;28;20321;-79
2024/01/26 14:49:47;;;;;;;6.67;6.00;;;8.60;85.50;;;;;;6229640;28;20258;-78
2024/01/26 14:52:51;;;;;;;6.17;5.77;;;8.60;85.70;;;;;;6232620;28;20242;-80
2024/01/26 14:55:56;;;;;;;5.67;5.37;;;8.60;85.80;;;;;;6230407;28;20918;-80
2024/01/26 14:59:00;;;;;;;6.13;5.70;;;8.60;86.20;;;;;;6232770;28;20246;-81
2024/01/26 15:02:03;;;;;;;5.77;5.47;;;8.70;86.40;;;;;;6233520;28;20253;-78
2024/01/26 15:05:08;;;;;;;5.17;4.77;;;8.70;86.30;;;;;;6230865;28;20888;-78
2024/01/26 15:08:11;;;;;;;4.77;4.47;;;8.80;86.50;;;;;;6233829;28;20241;-80
2024/01/26 15:11:16;;;;;;;3.70;3.60;;;8.90;86.10;;;;;;6234747;28;20239;-80
2024/01/26 15:14:20;;;;;;;4.47;4.17;;;9.00;85.50;;;;;;6232722;28;20320;-86
2024/01/26 15:17:23;;;;;;;3.83;3.63;;;9.00;85.00;;;;;;6233804;28;20324;-80
2024/01/26 15:20:26;;;;;;;3.60;3.50;;;8.90;84.70;;;;;;6237795;28;20243;-82
2024/01/26 15:23:29;;;;;;;3.50;3.40;;;8.90;84.80;;;;;;6237565;28;20235;-80
2024/01/26 15:26:34;;;;;;;3.43;3.33;;;8.90;84.30;;;;;;6232873;28;20483;-80
2024/01/26 15:29:37;;;;;;;3.60;3.40;;;8.90;84.00;;;;;;6233142;28;20251;-78
2024/01/26 15:32:41;;;;;;;4.10;3.90;;;8.90;82.70;;;;;;6230254;28;20575;-79
2024/01/26 15:35:44;;;;;;;3.40;3.20;;;8.90;81.50;;;;;;6230563;28;20233;-79
2024/01/26 15:38:48;;;;;;;3.10;3.10;;;8.90;80.90;;;;;;6230829;28;20230;-80
2024/01/26 15:41:52;;;;;;;4.03;2.80;;;8.80;80.20;;;;;;6228603;28;20245;-78
2024/01/26 15:44:59;;;;;;;2.90;2.60;;;8.80;78.20;;;;;;6231148;28;20227;-82
2024/01/26 15:48:02;;;;;;;3.23;3.00;;;8.70;77.20;;;;;;6227861;28;20242;-80
2024/01/26 15:51:06;;;;;;;3.47;2.80;;;8.60;76.50;;;;;;6228814;28;20253;-79
2024/01/26 15:54:10;;;;;;;3.23;2.80;;;8.60;75.70;;;;;;6231352;28;21033;-79